createdAt,value
2023-11-26T00:00:16.153Z,100936.97
2023-11-26T00:02:46.229Z,100957.22
2023-11-26T00:05:14.326Z,100958.25
2023-11-26T00:07:42.344Z,100960.16
2023-11-26T00:10:10.674Z,100953.88
2023-11-26T00:12:38.932Z,100953.06
2023-11-26T00:15:10.230Z,100959.31
2023-11-26T00:17:37.450Z,100930.97
2023-11-26T00:20:08.871Z,100960.97
2023-11-26T00:22:36.981Z,100965.59
2023-11-26T00:25:05.343Z,100965.81
2023-11-26T00:27:33.408Z,100964.16
2023-11-26T00:30:01.555Z,100970.44
2023-11-26T00:32:32.216Z,100971.25
2023-11-26T00:35:01.147Z,100965.81
2023-11-26T00:37:30.526Z,100961.44
2023-11-26T00:39:59.195Z,100952.03
2023-11-26T00:42:27.494Z,100958.72
2023-11-26T00:44:55.531Z,100956.00
2023-11-26T00:47:23.597Z,100960.38
2023-11-26T00:49:52.015Z,100965.81
2023-11-26T00:52:20.748Z,100968.53
2023-11-26T00:54:50.076Z,100973.16
2023-11-26T00:57:18.740Z,100971.47
2023-11-26T00:59:46.711Z,100976.91
2023-11-26T01:02:15.037Z,100975.22
2023-11-26T01:04:43.101Z,100972.97
2023-11-26T01:07:11.012Z,100980.47
2023-11-26T01:09:38.996Z,100982.34
2023-11-26T01:12:09.267Z,100987.78
2023-11-26T01:14:37.350Z,100989.66
2023-11-26T01:17:05.466Z,100994.28
2023-11-26T01:19:34.272Z,100952.94
2023-11-26T01:22:02.509Z,100995.09
2023-11-26T01:24:30.703Z,100989.03
2023-11-26T01:26:58.710Z,100990.72
2023-11-26T01:29:28.096Z,100954.63
2023-11-26T01:31:56.414Z,100992.59
2023-11-26T01:34:24.449Z,100992.59
2023-11-26T01:36:52.414Z,100986.31
2023-11-26T01:39:20.433Z,100986.56
2023-11-26T01:41:48.681Z,100960.25
2023-11-26T01:44:16.768Z,100983.22
2023-11-26T01:46:46.159Z,100984.50
2023-11-26T01:49:14.087Z,100991.16
2023-11-26T01:51:42.173Z,100989.47
2023-11-26T01:54:10.140Z,100984.88
2023-11-26T01:56:38.215Z,100982.16
2023-11-26T01:59:06.239Z,100940.41
2023-11-26T02:01:34.534Z,100993.03
2023-11-26T02:04:04.155Z,100997.84
2023-11-26T02:06:32.533Z,100977.59
2023-11-26T02:09:00.533Z,101007.47
2023-11-26T02:11:28.866Z,101003.91
2023-11-26T02:13:57.313Z,100972.38
2023-11-26T02:16:25.788Z,101007.69
2023-11-26T02:18:53.822Z,100993.91
2023-11-26T02:21:23.958Z,101004.13
2023-11-26T02:23:52.161Z,100995.97
2023-11-26T02:26:22.363Z,101006.84
2023-11-26T02:28:50.425Z,101009.16
2023-11-26T02:31:18.459Z,100998.28
2023-11-26T02:33:54.804Z,101015.00
2023-11-26T02:36:26.975Z,101011.44
2023-11-26T02:38:55.834Z,101010.59
2023-11-26T02:41:25.818Z,101010.59
2023-11-26T02:43:53.952Z,101014.41
2023-11-26T02:46:22.430Z,101009.56
2023-11-26T02:48:50.379Z,101017.94
2023-11-26T02:51:18.363Z,101010.59
2023-11-26T02:53:46.398Z,101024.19
2023-11-26T02:56:15.125Z,101022.56
2023-11-26T02:58:44.541Z,101023.38
2023-11-26T03:01:19.431Z,101020.66
2023-11-26T03:03:48.670Z,101018.75
2023-11-26T03:06:17.220Z,101035.31
2023-11-26T03:08:45.402Z,101027.16
2023-11-26T03:11:31.140Z,101023.59
2023-11-26T03:14:00.575Z,101030.09
2023-11-26T03:16:28.748Z,101030.09
2023-11-26T03:18:56.874Z,101028.41
2023-11-26T03:21:30.170Z,101028.59
2023-11-26T03:23:58.260Z,101030.53
2023-11-26T03:26:28.222Z,101029.69
2023-11-26T03:28:57.775Z,101033.00
2023-11-26T03:31:28.703Z,101031.13
2023-11-26T03:33:56.767Z,101030.28
2023-11-26T03:36:24.807Z,101033.00
2023-11-26T03:38:53.666Z,101036.56
2023-11-26T03:41:21.948Z,101038.44
2023-11-26T03:43:49.981Z,101034.88
2023-11-26T03:46:18.356Z,101033.00
2023-11-26T03:48:47.701Z,101033.00
2023-11-26T03:51:18.993Z,101036.56
2023-11-26T03:53:47.000Z,101042.84
2023-11-26T03:56:15.392Z,101048.28
2023-11-26T03:58:43.543Z,101032.63
2023-11-26T04:01:12.924Z,101049.31
2023-11-26T04:03:41.080Z,101040.31
2023-11-26T04:06:10.695Z,101044.72
2023-11-26T04:08:38.669Z,101039.28
2023-11-26T04:11:07.406Z,101040.13
2023-11-26T04:13:35.461Z,101040.31
2023-11-26T04:16:06.087Z,100998.75
2023-11-26T04:18:35.157Z,101038.44
2023-11-26T04:21:03.765Z,101037.59
2023-11-26T04:23:34.160Z,101039.50
2023-11-26T04:26:02.755Z,101025.09
2023-11-26T04:28:31.806Z,101027.63
2023-11-26T04:31:00.171Z,101043.28
2023-11-26T04:33:28.191Z,101049.56
2023-11-26T04:35:56.157Z,101044.13
2023-11-26T04:38:24.166Z,101048.72
2023-11-26T04:40:53.862Z,101019.84
2023-11-26T04:43:22.713Z,101042.19
2023-11-26T04:45:50.669Z,101045.75
2023-11-26T04:48:18.652Z,101047.44
2023-11-26T04:50:46.633Z,101043.03
2023-11-26T04:53:14.955Z,101048.28
2023-11-26T04:55:43.808Z,101042.00
2023-11-26T04:58:13.516Z,101041.16
2023-11-26T05:00:41.754Z,101038.44
2023-11-26T05:03:09.997Z,101043.88
2023-11-26T05:05:38.407Z,101049.31
2023-11-26T05:08:07.193Z,101033.66
2023-11-26T05:10:35.842Z,101045.75
2023-11-26T05:13:03.875Z,101028.63
2023-11-26T05:15:33.176Z,101063.97
2023-11-26T05:18:01.246Z,101056.63
2023-11-26T05:20:29.297Z,101060.19
2023-11-26T05:22:58.110Z,101053.91
2023-11-26T05:25:26.738Z,101054.75
2023-11-26T05:27:54.735Z,101056.25
2023-11-26T05:30:22.902Z,101059.34
2023-11-26T05:32:52.273Z,101064.78
2023-11-26T05:35:20.914Z,101067.50
2023-11-26T05:37:48.972Z,101038.03
2023-11-26T05:40:16.937Z,101051.44
2023-11-26T05:42:45.537Z,101048.09
2023-11-26T05:45:13.743Z,101063.97
2023-11-26T05:47:41.835Z,101062.06
2023-11-26T05:50:12.037Z,101063.75
2023-11-26T05:52:40.079Z,101065.63
2023-11-26T05:55:08.719Z,101056.63
2023-11-26T05:57:36.726Z,101067.50
2023-11-26T06:00:08.363Z,101071.06
2023-11-26T06:02:36.687Z,101068.34
2023-11-26T06:05:04.769Z,101075.66
2023-11-26T06:07:34.422Z,101078.38
2023-11-26T06:10:02.414Z,101078.19
2023-11-26T06:12:30.703Z,101077.56
2023-11-26T06:14:58.627Z,101070.22
2023-11-26T06:17:26.602Z,101071.06
2023-11-26T06:19:54.578Z,101062.13
2023-11-26T06:22:23.136Z,101075.47
2023-11-26T06:24:52.541Z,101078.19
2023-11-26T06:27:20.518Z,101075.47
2023-11-26T06:29:48.520Z,101068.16
2023-11-26T06:32:16.742Z,101078.19
2023-11-26T06:34:44.996Z,101062.31
2023-11-26T06:37:12.930Z,101067.31
2023-11-26T06:39:40.907Z,101067.31
2023-11-26T06:42:11.352Z,101061.03
2023-11-26T06:44:39.358Z,101061.88
2023-11-26T06:47:07.457Z,101060.00
2023-11-26T06:49:35.435Z,101057.91
2023-11-26T06:52:03.684Z,101064.78
2023-11-26T06:54:31.691Z,101056.44
2023-11-26T06:56:59.752Z,101065.44
2023-11-26T06:59:29.117Z,101052.88
2023-11-26T07:01:57.427Z,101061.88
2023-11-26T07:04:25.572Z,101022.16
2023-11-26T07:06:53.612Z,101051.00
2023-11-26T07:09:21.642Z,101068.34
2023-11-26T07:11:49.903Z,101071.91
2023-11-26T07:14:17.836Z,101075.47
2023-11-26T07:16:47.384Z,101067.31
2023-11-26T07:19:15.340Z,101069.19
2023-11-26T07:21:43.797Z,101066.47
2023-11-26T07:24:11.858Z,101058.31
2023-11-26T07:26:40.027Z,101054.56
2023-11-26T07:29:10.965Z,101052.47
2023-11-26T07:31:40.217Z,101060.81
2023-11-26T07:34:09.726Z,101032.00
2023-11-26T07:36:38.216Z,101060.00
2023-11-26T07:39:06.357Z,101055.81
2023-11-26T07:41:34.960Z,101053.91
2023-11-26T07:44:02.946Z,101045.38
2023-11-26T07:46:31.301Z,101062.91
2023-11-26T07:48:59.557Z,101070.22
2023-11-26T07:51:28.939Z,101071.06
2023-11-26T07:53:56.940Z,101063.16
2023-11-26T07:56:24.924Z,101068.34
2023-11-26T07:58:53.000Z,101067.94
2023-11-26T08:01:21.262Z,101078.19
2023-11-26T08:03:50.926Z,101075.47
2023-11-26T08:06:19.329Z,101080.91
2023-11-26T08:08:48.669Z,101058.31
2023-11-26T08:11:17.380Z,101080.06
2023-11-26T08:13:46.053Z,101073.78
2023-11-26T08:16:15.591Z,101080.06
2023-11-26T08:18:43.701Z,101073.78
2023-11-26T08:21:11.978Z,101073.78
2023-11-26T08:23:41.653Z,101079.03
2023-11-26T08:26:14.497Z,101067.94
2023-11-26T08:28:44.029Z,101066.47
2023-11-26T08:31:12.940Z,101069.19
2023-11-26T08:33:44.858Z,101062.50
2023-11-26T08:36:16.626Z,101068.34
2023-11-26T08:38:44.829Z,101059.59
2023-11-26T08:41:15.180Z,101066.47
2023-11-26T08:43:45.605Z,101051.63
2023-11-26T08:46:17.610Z,101068.97
2023-11-26T08:48:46.213Z,101061.03
2023-11-26T08:51:14.910Z,101064.59
2023-11-26T08:53:42.932Z,101067.31
2023-11-26T08:56:11.271Z,101066.47
2023-11-26T08:58:40.606Z,101058.31
2023-11-26T09:01:08.831Z,101071.91
2023-11-26T09:03:38.723Z,101067.31
2023-11-26T09:06:09.210Z,101054.81
2023-11-26T09:08:37.320Z,101068.97
2023-11-26T09:11:05.603Z,101066.47
2023-11-26T09:13:33.566Z,101069.19
2023-11-26T09:16:03.256Z,101064.78
2023-11-26T09:18:31.267Z,101066.69
2023-11-26T09:20:59.865Z,101064.59
2023-11-26T09:23:29.835Z,101059.16
2023-11-26T09:25:58.586Z,101056.44
2023-11-26T09:28:26.812Z,101053.72
2023-11-26T09:30:54.767Z,101053.72
2023-11-26T09:33:24.248Z,101049.13
2023-11-26T09:35:52.755Z,101052.66
2023-11-26T09:38:20.688Z,101046.41
2023-11-26T09:40:48.629Z,101049.94
2023-11-26T09:43:16.544Z,101044.72
2023-11-26T09:45:46.824Z,101046.41
2023-11-26T09:48:14.930Z,101053.50
2023-11-26T09:50:44.354Z,101048.47
2023-11-26T09:53:12.326Z,101057.28
2023-11-26T09:55:41.208Z,101054.56
2023-11-26T09:58:09.428Z,101060.00
2023-11-26T10:00:37.973Z,101046.00
2023-11-26T10:03:06.448Z,101051.84
2023-11-26T10:05:34.649Z,101049.13
2023-11-26T10:08:04.224Z,101039.72
2023-11-26T10:10:32.608Z,101047.22
2023-11-26T10:13:01.618Z,101054.34
2023-11-26T10:15:30.673Z,101049.94
2023-11-26T10:18:04.731Z,101052.66
2023-11-26T10:20:33.395Z,101028.22
2023-11-26T10:23:01.333Z,101044.50
2023-11-26T10:25:30.715Z,101041.78
2023-11-26T10:28:00.851Z,101048.06
2023-11-26T10:30:30.269Z,101038.03
2023-11-26T10:33:03.599Z,101040.56
2023-11-26T10:35:55.161Z,101023.03
2023-11-26T10:38:26.941Z,101040.75
2023-11-26T10:40:58.004Z,101041.78
2023-11-26T10:43:26.510Z,101039.06
2023-11-26T10:45:54.512Z,101031.75
2023-11-26T10:48:23.995Z,101023.59
2023-11-26T10:50:55.780Z,101014.03
2023-11-26T10:53:23.689Z,101028.00
2023-11-26T10:55:53.345Z,101014.41
2023-11-26T10:58:23.849Z,101029.88
2023-11-26T11:00:55.212Z,101019.84
2023-11-26T11:03:25.457Z,101009.38
2023-11-26T11:05:55.396Z,101016.88
2023-11-26T11:08:25.200Z,101016.03
2023-11-26T11:10:59.604Z,101008.13
2023-11-26T11:13:28.961Z,101013.31
2023-11-26T11:15:56.951Z,101006.66
2023-11-26T11:18:40.969Z,101019.59
2023-11-26T11:21:11.201Z,101016.03
2023-11-26T11:23:40.472Z,101020.66
2023-11-26T11:26:09.074Z,101016.88
2023-11-26T11:28:40.032Z,101011.44
2023-11-26T11:31:09.512Z,101008.72
2023-11-26T11:33:37.593Z,101011.44
2023-11-26T11:36:09.140Z,101001.22
2023-11-26T11:39:05.043Z,101010.22
2023-11-26T11:41:33.033Z,101008.72
2023-11-26T11:44:30.041Z,101005.16
2023-11-26T11:46:58.030Z,101006.00
2023-11-26T11:49:29.691Z,100989.94
2023-11-26T11:51:57.704Z,100999.72
2023-11-26T11:54:56.619Z,101001.63
2023-11-26T11:57:25.918Z,100975.94
2023-11-26T11:59:56.442Z,100995.78
2023-11-26T12:02:24.751Z,101001.41
2023-11-26T12:04:53.070Z,101006.00
2023-11-26T12:07:21.833Z,101002.25
2023-11-26T12:09:49.869Z,100989.94
2023-11-26T12:12:21.417Z,101006.84
2023-11-26T12:14:49.648Z,100979.94
2023-11-26T12:17:19.050Z,100969.66
2023-11-26T12:19:47.027Z,100995.56
2023-11-26T12:22:15.627Z,100993.69
2023-11-26T12:24:43.681Z,100999.53
2023-11-26T12:27:23.563Z,100991.19
2023-11-26T12:29:51.575Z,100993.03
2023-11-26T12:32:27.618Z,100993.25
2023-11-26T12:35:01.975Z,100991.38
2023-11-26T12:37:29.968Z,100992.00
2023-11-26T12:39:57.927Z,100988.25
2023-11-26T12:42:27.750Z,100983.66
2023-11-26T12:44:55.810Z,100958.78
2023-11-26T12:47:25.293Z,100989.28
2023-11-26T12:49:58.683Z,100989.28
2023-11-26T12:52:26.700Z,100977.97
2023-11-26T12:54:54.628Z,100981.13
2023-11-26T12:57:22.693Z,100990.94
2023-11-26T12:59:50.660Z,100983.84
2023-11-26T13:02:19.214Z,100957.13
2023-11-26T13:04:48.717Z,100985.50
2023-11-26T13:07:17.359Z,100981.13
2023-11-26T13:09:49.847Z,100988.22
2023-11-26T13:12:20.369Z,100958.81
2023-11-26T13:14:49.766Z,100928.06
2023-11-26T13:17:20.731Z,100974.00
2023-11-26T13:19:50.689Z,100968.56
2023-11-26T13:22:18.954Z,100964.81
2023-11-26T13:24:46.974Z,100966.69
2023-11-26T13:27:14.995Z,100958.53
2023-11-26T13:29:44.301Z,100956.66
2023-11-26T13:32:13.370Z,100914.69
2023-11-26T13:34:41.501Z,100955.81
2023-11-26T13:37:11.132Z,100963.97
2023-11-26T13:39:39.083Z,100957.47
2023-11-26T13:42:07.497Z,100956.66
2023-11-26T13:44:36.758Z,100953.09
2023-11-26T13:47:05.421Z,100914.91
2023-11-26T13:49:33.474Z,100965.66
2023-11-26T13:52:01.921Z,100962.91
2023-11-26T13:54:31.303Z,100963.75
2023-11-26T13:56:59.317Z,100948.91
2023-11-26T13:59:27.446Z,100945.34
2023-11-26T14:01:55.860Z,100957.47
2023-11-26T14:04:26.402Z,100953.69
2023-11-26T14:06:58.878Z,100955.59
2023-11-26T14:09:27.154Z,100954.75
2023-11-26T14:11:56.519Z,100957.47
2023-11-26T14:14:24.484Z,100954.53
2023-11-26T14:16:52.602Z,100952.88
2023-11-26T14:19:21.461Z,100951.81
2023-11-26T14:21:49.501Z,100945.53
2023-11-26T14:24:17.493Z,100936.16
2023-11-26T14:26:45.730Z,100943.66
2023-11-26T14:29:16.005Z,100907.38
2023-11-26T14:31:45.633Z,100937.38
2023-11-26T14:34:13.737Z,100931.94
2023-11-26T14:36:41.844Z,100927.56
2023-11-26T14:39:13.018Z,100929.22
2023-11-26T14:41:41.535Z,100922.97
2023-11-26T14:44:09.588Z,100923.78
2023-11-26T14:46:39.377Z,100924.84
2023-11-26T14:49:10.122Z,100932.78
2023-11-26T14:51:38.192Z,100920.47
2023-11-26T14:54:06.374Z,100924.00
2023-11-26T14:56:38.637Z,100913.16
2023-11-26T14:59:06.612Z,100924.84
2023-11-26T15:01:34.966Z,100924.84
2023-11-26T15:04:03.784Z,100917.31
2023-11-26T15:06:32.020Z,100923.19
2023-11-26T15:09:00.689Z,100923.19
2023-11-26T15:11:29.822Z,100921.28
2023-11-26T15:13:57.773Z,100912.31
2023-11-26T15:16:25.810Z,100915.03
2023-11-26T15:18:53.957Z,100920.47
2023-11-26T15:21:24.609Z,100910.41
2023-11-26T15:23:52.606Z,100904.16
2023-11-26T15:26:22.967Z,100906.88
2023-11-26T15:28:50.974Z,100908.53
2023-11-26T15:31:19.313Z,100900.78
2023-11-26T15:33:47.429Z,100912.91
2023-11-26T15:36:18.184Z,100908.28
2023-11-26T15:38:48.812Z,100895.78
2023-11-26T15:41:21.664Z,100882.22
2023-11-26T15:43:50.220Z,100895.78
2023-11-26T15:46:21.837Z,100888.03
2023-11-26T15:48:49.859Z,100897.66
2023-11-26T15:51:18.013Z,100898.50
2023-11-26T15:54:01.872Z,100899.31
2023-11-26T15:56:32.006Z,100901.22
2023-11-26T15:59:03.025Z,100900.38
2023-11-26T16:01:31.409Z,100902.03
2023-11-26T16:03:59.614Z,100903.94
2023-11-26T16:06:29.736Z,100902.25
2023-11-26T16:09:00.705Z,100900.38
2023-11-26T16:11:31.804Z,100894.94
2023-11-26T16:13:59.954Z,100903.09
2023-11-26T16:16:28.010Z,100904.75
2023-11-26T16:18:56.598Z,100900.38
2023-11-26T16:21:26.327Z,100903.09
2023-11-26T16:23:58.825Z,100903.09
2023-11-26T16:26:29.019Z,100904.97
2023-11-26T16:28:57.030Z,100897.66
2023-11-26T16:31:25.409Z,100896.00
2023-11-26T16:33:54.473Z,100902.25
2023-11-26T16:36:23.974Z,100895.16
2023-11-26T16:38:53.715Z,100900.38
2023-11-26T16:41:22.408Z,100889.72
2023-11-26T16:43:51.765Z,100894.09
2023-11-26T16:46:19.840Z,100892.22
2023-11-26T16:48:47.920Z,100890.56
2023-11-26T16:51:16.750Z,100894.94
2023-11-26T16:53:44.759Z,100893.06
2023-11-26T16:56:12.862Z,100878.28
2023-11-26T16:58:40.852Z,100894.09
2023-11-26T17:01:12.310Z,100885.72
2023-11-26T17:03:40.549Z,100883.66
2023-11-26T17:06:09.517Z,100884.28
2023-11-26T17:08:37.481Z,100883.00
2023-11-26T17:11:06.757Z,100893.06
2023-11-26T17:13:34.758Z,100885.94
2023-11-26T17:16:02.908Z,100873.00
2023-11-26T17:18:33.194Z,100891.16
2023-11-26T17:21:01.143Z,100891.97
2023-11-26T17:23:29.200Z,100891.16
2023-11-26T17:25:57.948Z,100890.34
2023-11-26T17:28:25.997Z,100890.34
2023-11-26T17:30:54.023Z,100888.44
2023-11-26T17:33:21.999Z,100897.41
2023-11-26T17:35:51.345Z,100897.66
2023-11-26T17:38:19.313Z,100893.06
2023-11-26T17:40:48.647Z,100820.28
2023-11-26T17:43:16.597Z,100893.88
2023-11-26T17:45:45.493Z,100897.66
2023-11-26T17:48:13.774Z,100882.19
2023-11-26T17:50:42.705Z,100885.72
2023-11-26T17:53:13.396Z,100884.91
2023-11-26T17:55:42.512Z,100872.00
2023-11-26T17:58:10.532Z,100871.31
2023-11-26T18:00:38.975Z,100876.53
2023-11-26T18:03:09.541Z,100881.56
2023-11-26T18:05:37.691Z,100877.53
2023-11-26T18:08:06.265Z,100844.00
2023-11-26T18:10:37.595Z,100871.91
2023-11-26T18:13:05.881Z,100875.66
2023-11-26T18:15:34.208Z,100872.09
2023-11-26T18:18:02.352Z,100753.97
2023-11-26T18:20:30.754Z,100871.31
2023-11-26T18:22:59.565Z,100874.81
2023-11-26T18:25:27.508Z,100870.47
2023-11-26T18:27:57.477Z,100870.47
2023-11-26T18:30:25.890Z,100875.66
2023-11-26T18:32:54.256Z,100870.22
2023-11-26T18:35:22.300Z,100857.28
2023-11-26T18:37:50.999Z,100859.59
2023-11-26T18:40:19.002Z,100865.88
2023-11-26T18:42:50.554Z,100869.38
2023-11-26T18:45:20.316Z,100870.22
2023-11-26T18:47:48.746Z,100858.50
2023-11-26T18:50:17.124Z,100864.78
2023-11-26T18:52:45.089Z,100871.91
2023-11-26T18:55:13.412Z,100849.31
2023-11-26T18:57:41.494Z,100858.50
2023-11-26T19:00:13.603Z,100862.06
2023-11-26T19:02:43.837Z,100849.56
2023-11-26T19:05:13.925Z,100853.91
2023-11-26T19:07:41.926Z,100860.44
2023-11-26T19:10:11.203Z,100859.59
2023-11-26T19:12:39.720Z,100853.31
2023-11-26T19:15:10.644Z,100855.00
2023-11-26T19:17:38.709Z,100855.78
2023-11-26T19:20:11.162Z,100862.06
2023-11-26T19:22:39.640Z,100859.34
2023-11-26T19:25:08.524Z,100842.88
2023-11-26T19:27:36.637Z,100850.34
2023-11-26T19:30:05.169Z,100848.72
2023-11-26T19:32:33.817Z,100831.22
2023-11-26T19:35:02.597Z,100847.63
2023-11-26T19:37:31.954Z,100843.28
2023-11-26T19:39:59.970Z,100851.44
2023-11-26T19:42:28.373Z,100849.56
2023-11-26T19:44:57.206Z,100844.31
2023-11-26T19:47:25.095Z,100837.00
2023-11-26T19:49:53.407Z,100835.13
2023-11-26T19:52:21.381Z,100835.34
2023-11-26T19:54:50.768Z,100837.00
2023-11-26T19:57:18.982Z,100831.56
2023-11-26T19:59:46.922Z,100828.84
2023-11-26T20:02:15.222Z,100836.16
2023-11-26T20:04:43.188Z,100819.88
2023-11-26T20:07:11.180Z,100810.06
2023-11-26T20:09:39.177Z,100801.13
2023-11-26T20:12:09.499Z,100800.84
2023-11-26T20:14:37.504Z,100813.13
2023-11-26T20:17:08.053Z,100808.53
2023-11-26T20:19:36.368Z,100800.59
2023-11-26T20:22:04.834Z,100810.66
2023-11-26T20:24:33.978Z,100802.50
2023-11-26T20:27:03.831Z,100795.22
2023-11-26T20:29:34.262Z,100793.50
2023-11-26T20:32:02.609Z,100800.81
2023-11-26T20:34:30.600Z,100793.50
2023-11-26T20:36:58.722Z,100794.53
2023-11-26T20:39:26.773Z,100778.47
2023-11-26T20:41:55.088Z,100791.63
2023-11-26T20:44:23.031Z,100785.34
2023-11-26T20:46:52.439Z,100785.34
2023-11-26T20:49:20.484Z,100786.19
2023-11-26T20:51:48.500Z,100780.94
2023-11-26T20:54:16.484Z,100776.34
2023-11-26T20:56:44.439Z,100765.06
2023-11-26T20:59:12.604Z,100768.41
2023-11-26T21:01:40.960Z,100764.63
2023-11-26T21:04:10.446Z,100762.97
2023-11-26T21:06:43.413Z,100762.75
2023-11-26T21:09:12.078Z,100754.59
2023-11-26T21:11:44.333Z,100715.88
2023-11-26T21:14:12.329Z,100756.47
2023-11-26T21:16:40.304Z,100746.66
2023-11-26T21:19:11.612Z,100749.16
2023-11-26T21:21:41.435Z,100746.66
2023-11-26T21:24:11.503Z,100746.66
2023-11-26T21:26:39.871Z,100748.31
2023-11-26T21:29:07.963Z,100750.00
2023-11-26T21:31:38.858Z,100756.47
2023-11-26T21:34:07.227Z,100747.47
2023-11-26T21:36:35.333Z,100742.88
2023-11-26T21:39:04.801Z,100739.13
2023-11-26T21:41:33.164Z,100732.84
2023-11-26T21:44:01.735Z,100734.72
2023-11-26T21:46:36.114Z,100721.13
2023-11-26T21:49:09.578Z,100715.91
2023-11-26T21:51:38.578Z,100722.81
2023-11-26T21:54:08.029Z,100713.81
2023-11-26T21:56:36.567Z,100710.25
2023-11-26T21:59:04.573Z,100678.19
2023-11-26T22:01:32.917Z,100695.00
2023-11-26T22:04:01.108Z,100685.78
2023-11-26T22:06:29.133Z,100693.94
2023-11-26T22:08:57.268Z,100685.78
2023-11-26T22:11:26.908Z,100685.78
2023-11-26T22:13:54.863Z,100684.13
2023-11-26T22:16:22.989Z,100674.59
2023-11-26T22:18:51.093Z,100689.56
2023-11-26T22:21:19.832Z,100697.50
2023-11-26T22:23:48.102Z,100677.84
2023-11-26T22:26:16.190Z,100686.84
2023-11-26T22:28:45.526Z,100683.06
2023-11-26T22:31:15.698Z,100677.84
2023-11-26T22:33:44.035Z,100583.59
2023-11-26T22:36:12.370Z,100669.69
2023-11-26T22:38:40.360Z,100674.91
2023-11-26T22:41:09.117Z,100671.34
2023-11-26T22:43:37.882Z,100666.97
2023-11-26T22:46:07.914Z,100664.25
2023-11-26T22:48:35.883Z,100662.56
2023-11-26T22:51:03.880Z,100667.81
2023-11-26T22:53:31.868Z,100653.38
2023-11-26T22:55:59.865Z,100653.38
2023-11-26T22:58:27.822Z,100658.81
2023-11-26T23:00:56.129Z,100648.78
2023-11-26T23:03:25.996Z,100655.25
2023-11-26T23:05:54.036Z,100655.25
2023-11-26T23:08:22.002Z,100655.25
2023-11-26T23:10:50.018Z,100652.53
2023-11-26T23:13:22.894Z,100651.69
2023-11-26T23:15:51.360Z,100646.25
2023-11-26T23:18:19.368Z,100653.38
2023-11-26T23:20:49.111Z,100650.88
2023-11-26T23:23:18.222Z,100640.00
2023-11-26T23:25:50.461Z,100640.81
2023-11-26T23:28:18.559Z,100631.03
2023-11-26T23:30:47.901Z,100624.50
2023-11-26T23:33:16.763Z,100618.25
2023-11-26T23:35:44.787Z,100612.81
2023-11-26T23:38:14.100Z,100614.72
2023-11-26T23:40:47.297Z,100602.59
2023-11-26T23:43:15.334Z,100597.56
2023-11-26T23:45:43.875Z,100613.63
2023-11-26T23:48:12.376Z,100595.44
2023-11-26T23:50:40.427Z,100557.88
2023-11-26T23:53:08.412Z,100594.84
2023-11-26T23:55:37.794Z,100596.75
2023-11-26T23:58:05.800Z,100586.28
